SALMON FALLS @ MILTON: From 01/10/2019 02:00 to 01/24/2019 10:00

Date STAGE [FT] FLOW [CFS] LAKE ELEVATION [FT] PRECIPITATION INCREMENT [IN] AIR TEMPERATURE [DEGF]
01/24/2019 03:00 3.17 -- 411.17 0.00 33.5
01/24/2019 02:00 3.17 122.4 411.17 0.00 34.1
01/24/2019 01:00 3.17 122.4 411.16 0.00 34.5
01/24/2019 00:00 3.16 120.0 411.14 0.00 34.3
01/23/2019 23:00 3.17 122.4 411.15 0.00 35.4
01/23/2019 22:00 3.16 120.0 411.15 0.00 35.6
01/23/2019 21:00 3.16 120.0 411.14 0.00 36.6
01/23/2019 20:00 3.16 120.0 411.14 0.00 37.6
01/23/2019 19:00 3.17 122.4 411.15 0.00 36.4
01/23/2019 18:00 3.17 122.4 411.15 0.00 32.7
01/23/2019 17:00 3.17 122.4 411.15 0.00 31.4
01/23/2019 16:00 3.17 122.4 411.15 0.00 32.5
01/23/2019 15:00 3.16 120.0 411.14 0.00 34.0
01/23/2019 14:00 3.17 122.4 411.13 0.00 31.7
01/23/2019 13:00 3.16 120.0 411.14 0.00 30.0
01/23/2019 12:00 3.16 120.0 411.14 0.00 26.4
01/23/2019 11:00 3.17 122.4 411.14 0.00 22.5
01/23/2019 10:00 3.17 122.4 411.13 0.00 20.2
01/23/2019 09:00 3.17 122.4 411.13 0.00 17.5
01/23/2019 08:00 3.17 122.4 411.14 0.00 15.5
01/23/2019 07:00 3.16 120.0 411.14 0.00 14.4
01/23/2019 06:00 3.17 122.4 411.12 0.00 14.7
01/23/2019 05:00 3.17 122.4 411.14 0.00 11.5
01/23/2019 04:00 3.17 122.4 411.14 0.00 12.4
01/23/2019 03:00 3.18 124.9 411.14 0.00 12.2
01/23/2019 02:00 3.17 122.4 411.13 0.00 13.6
01/23/2019 01:00 3.16 120.0 411.12 0.00 14.4
01/23/2019 00:00 3.18 124.9 411.13 0.00 14.2
01/22/2019 23:00 3.16 120.0 411.12 0.00 15.8
01/22/2019 22:00 3.16 120.0 411.12 0.00 15.7
01/22/2019 21:00 3.17 122.4 411.12 0.00 17.2
01/22/2019 20:00 3.16 120.0 411.13 0.00 17.1
01/22/2019 19:00 3.17 122.4 411.13 0.00 17.2
01/22/2019 18:00 3.17 122.4 411.13 0.00 16.3
01/22/2019 17:00 3.16 120.0 411.13 0.00 18.1
01/22/2019 16:00 3.16 120.0 411.12 0.00 19.3
01/22/2019 15:00 3.17 122.4 411.13 0.00 21.2
01/22/2019 14:00 3.16 120.0 411.12 0.00 21.6
01/22/2019 13:00 3.17 122.4 411.12 0.00 20.0
01/22/2019 12:00 3.17 122.4 411.11 0.00 18.4
01/22/2019 11:00 3.16 120.0 411.10 0.00 15.8
01/22/2019 10:00 3.15 117.6 411.12 0.00 11.7
01/22/2019 09:00 3.16 120.0 411.13 0.00 8.3
01/22/2019 08:00 3.16 120.0 411.12 0.00 5.5
01/22/2019 07:00 3.16 120.0 411.13 0.00 3.4
01/22/2019 06:00 3.15 117.6 411.10 0.00 3.4
01/22/2019 05:00 3.16 120.0 411.12 0.00 2.5
01/22/2019 04:00 3.15 117.6 411.10 0.00 1.7
01/22/2019 03:00 3.15 117.6 411.09 0.00 1.4
01/22/2019 02:00 3.15 117.6 411.10 0.00 2.0
01/22/2019 01:00 3.15 117.6 411.11 0.00 1.8
01/22/2019 00:00 3.14 115.2 411.10 0.00 2.3
01/21/2019 23:00 3.15 117.6 411.10 0.00 2.3
01/21/2019 22:00 3.15 117.6 411.08 0.00 2.3
01/21/2019 21:00 3.15 117.6 411.09 0.00 1.1
01/21/2019 20:00 3.14 115.2 411.08 0.00 0.5
01/21/2019 19:00 3.14 115.2 411.08 0.00 -0.8
01/21/2019 18:00 3.14 115.2 411.10 0.00 -1.2
01/21/2019 17:00 3.14 115.2 411.06 0.00 -1.5
01/21/2019 16:00 3.14 115.2 411.09 0.00 -0.7
01/21/2019 15:00 3.14 115.2 411.08 0.00 -0.5
01/21/2019 14:00 3.15 117.6 411.08 0.00 1.2
01/21/2019 13:00 3.14 115.2 411.08 0.00 1.5
01/21/2019 12:00 3.14 115.2 411.05 0.00 1.6
01/21/2019 11:00 3.13 112.8 411.09 0.00 0.6
01/21/2019 10:00 3.14 115.2 411.06 0.00 -0.1
01/21/2019 09:00 3.13 112.8 411.10 0.00 -0.3
01/21/2019 08:00 3.13 112.8 411.07 0.00 0.1
01/21/2019 07:00 3.13 112.8 411.06 0.00 1.0
01/21/2019 06:00 3.13 112.8 411.04 0.00 0.6
01/21/2019 05:00 3.14 115.2 411.05 0.00 0.5
01/21/2019 04:00 3.13 112.8 411.06 0.00 1.1
01/21/2019 03:00 3.13 112.8 411.05 0.00 1.2
01/21/2019 02:00 3.13 112.8 411.05 0.00 1.4
01/21/2019 01:00 3.13 112.8 411.04 0.00 1.7
01/21/2019 00:00 3.12 110.5 411.05 0.00 2.4
01/20/2019 23:00 3.13 112.8 411.05 0.00 4.3
01/20/2019 22:00 3.12 110.5 411.04 0.00 6.6
01/20/2019 21:00 3.13 112.8 411.06 0.00 11.9
01/20/2019 20:00 3.13 112.8 411.04 0.00 15.1
01/20/2019 19:00 3.13 112.8 411.04 0.00 19.7
01/20/2019 18:00 3.12 110.5 411.03 0.00 18.1
01/20/2019 17:00 3.12 110.5 411.04 0.00 16.2
01/20/2019 16:00 3.11 108.2 411.02 0.00 15.8
01/20/2019 15:00 3.12 110.5 411.03 0.00 13.6
01/20/2019 14:00 3.13 112.8 411.06 0.00 12.3
01/20/2019 13:00 3.11 108.2 411.02 0.00 12.0
01/20/2019 12:00 3.12 110.5 411.02 0.00 11.0
01/20/2019 11:00 3.12 110.5 411.00 0.00 10.8
01/20/2019 10:00 3.12 110.5 411.01 0.00 9.6
01/20/2019 09:00 3.13 112.8 411.00 0.00 9.1
01/20/2019 08:00 3.12 110.5 410.99 0.00 9.1
01/20/2019 07:00 3.11 108.2 410.95 0.00 9.2
01/20/2019 06:00 3.12 110.5 411.00 0.00 10.2
01/20/2019 05:00 3.11 108.2 410.96 0.00 10.4
01/20/2019 04:00 3.10 106.0 410.96 0.00 10.6
01/20/2019 03:00 3.11 108.2 410.95 0.00 10.9
01/20/2019 02:00 3.10 106.0 410.94 0.00 12.3
01/20/2019 01:00 3.10 106.0 410.93 0.00 13.2
01/20/2019 00:00 3.11 108.2 410.91 0.00 12.8
01/19/2019 23:00 3.10 106.0 410.91 0.00 13.4
01/19/2019 22:00 3.10 106.0 410.90 0.00 13.6
01/19/2019 21:00 3.09 103.7 410.91 0.00 15.3
01/19/2019 20:00 3.09 103.7 410.90 0.00 17.1
01/19/2019 19:00 3.10 106.0 410.90 0.00 18.4
01/19/2019 18:00 3.09 103.7 410.89 0.00 20.6
01/19/2019 17:00 3.08 101.5 410.88 0.00 23.4
01/19/2019 16:00 3.09 103.7 410.87 0.00 24.8
01/19/2019 15:00 3.09 103.7 410.87 0.00 26.3
01/19/2019 14:00 3.08 101.5 410.87 0.00 25.9
01/19/2019 13:00 3.09 103.7 410.87 0.00 25.8
01/19/2019 12:00 3.09 103.7 410.86 0.00 25.4
01/19/2019 11:00 3.09 103.7 410.86 0.00 24.5
01/19/2019 10:00 3.08 101.5 410.86 0.00 22.5
01/19/2019 09:00 3.08 101.5 410.85 0.00 21.5
01/19/2019 08:00 3.08 101.5 410.85 0.00 20.6
01/19/2019 07:00 3.08 101.5 410.85 0.00 19.7
01/19/2019 06:00 3.08 101.5 410.84 0.00 20.8
01/19/2019 05:00 3.08 101.5 410.84 0.00 22.3
01/19/2019 04:00 3.07 99.3 410.84 0.00 23.5
01/19/2019 03:00 3.07 99.3 410.84 0.00 24.9
01/19/2019 02:00 3.07 99.3 410.83 0.00 23.9
01/19/2019 01:00 3.07 99.3 410.82 0.00 26.9
01/19/2019 00:00 3.07 99.3 410.83 0.00 29.2
01/18/2019 23:00 3.07 99.3 410.81 0.00 27.1
01/18/2019 22:00 3.06 97.2 410.81 0.00 27.4
01/18/2019 21:00 3.06 97.2 410.81 0.00 27.4
01/18/2019 20:00 3.06 97.2 410.80 0.00 26.5
01/18/2019 19:00 3.06 97.2 410.80 0.00 27.7
01/18/2019 18:00 3.06 97.2 410.80 0.00 29.4
01/18/2019 17:00 3.06 97.2 410.79 0.00 30.4
01/18/2019 16:00 3.06 97.2 410.79 0.00 31.4
01/18/2019 15:00 3.06 97.2 410.79 0.00 31.2
01/18/2019 14:00 3.05 95.0 410.78 0.00 30.3
01/18/2019 13:00 3.05 95.0 410.78 0.00 28.8
01/18/2019 12:00 3.06 97.2 410.76 0.00 27.2
01/18/2019 11:00 3.40 190.0 410.75 0.00 22.0
01/18/2019 10:00 3.39 186.6 410.75 0.00 18.9
01/18/2019 09:00 3.39 186.6 410.76 0.00 16.6
01/18/2019 08:00 3.40 190.0 410.77 0.00 15.0
01/18/2019 07:00 3.40 190.0 410.78 0.00 13.9
01/18/2019 06:00 3.39 186.6 410.77 0.00 13.3
01/18/2019 05:00 3.40 190.0 410.79 0.00 14.8
01/18/2019 04:00 3.40 190.0 410.78 0.00 15.6
01/18/2019 03:00 3.39 186.6 410.79 0.00 15.4
01/18/2019 02:00 3.39 186.6 410.80 0.00 14.7
01/18/2019 01:00 3.40 190.0 410.81 0.00 14.2
01/18/2019 00:00 3.40 190.0 410.81 0.00 14.1
01/17/2019 23:00 3.41 193.4 410.81 0.00 14.4
01/17/2019 22:00 3.41 193.4 410.84 0.00 14.7
01/17/2019 21:00 3.40 190.0 410.82 0.00 14.8
01/17/2019 20:00 3.40 190.0 410.81 0.00 15.3
01/17/2019 19:00 3.41 193.4 410.83 0.00 14.8
01/17/2019 18:00 3.41 193.4 410.83 0.00 16.6
01/17/2019 17:00 3.41 193.4 410.83 0.00 18.2
01/17/2019 16:00 3.42 196.9 410.84 0.00 21.1
01/17/2019 15:00 3.40 190.0 410.85 0.00 21.2
01/17/2019 14:00 3.41 193.4 410.85 0.00 20.6
01/17/2019 13:00 3.40 190.0 410.84 0.00 18.6
01/17/2019 12:00 3.40 190.0 410.86 0.00 17.2
01/17/2019 11:00 3.41 193.4 410.86 0.00 16.4
01/17/2019 10:00 3.40 190.0 410.87 0.00 15.1
01/17/2019 09:00 3.41 193.4 410.87 0.00 10.8
01/17/2019 08:00 3.41 193.4 410.89 0.00 8.4
01/17/2019 07:00 3.41 193.4 410.89 0.00 7.5
01/17/2019 06:00 3.43 200.3 410.88 0.00 8.2
01/17/2019 05:00 3.42 196.9 410.90 0.00 9.1
01/17/2019 04:00 3.41 193.4 410.90 0.00 10.3
01/17/2019 03:00 3.42 196.9 410.91 0.00 11.7
01/17/2019 02:00 3.43 200.3 410.92 0.00 13.3
01/17/2019 01:00 3.43 200.3 410.92 0.00 15.4
01/17/2019 00:00 3.43 200.3 410.92 0.00 18.6
01/16/2019 23:00 3.43 200.3 410.91 0.00 23.0
01/16/2019 22:00 3.42 196.9 410.92 0.00 26.4
01/16/2019 21:00 3.41 193.4 410.92 0.00 30.1
01/16/2019 20:00 3.42 196.9 410.92 0.00 32.3
01/16/2019 19:00 3.43 200.3 410.92 0.00 33.5
01/16/2019 18:00 3.43 200.3 410.93 0.00 29.4
01/16/2019 17:00 3.42 196.9 410.93 0.00 31.3
01/16/2019 16:00 3.42 196.9 410.94 0.00 35.1
01/16/2019 15:00 3.43 200.3 410.94 0.00 36.0
01/16/2019 14:00 3.42 196.9 410.97 0.00 35.8
01/16/2019 13:00 3.43 200.3 410.95 0.00 32.7
01/16/2019 12:00 3.44 203.9 410.96 0.00 31.8
01/16/2019 11:00 3.43 200.3 410.96 0.00 29.5
01/16/2019 10:00 3.45 207.5 410.97 0.00 29.1
01/16/2019 09:00 3.43 200.3 410.96 0.00 21.7
01/16/2019 08:00 3.44 203.9 410.97 0.00 20.0
01/16/2019 07:00 3.43 200.3 410.98 0.00 18.6
01/16/2019 06:00 3.43 200.3 410.98 0.00 17.4
01/16/2019 05:00 3.44 203.9 410.98 0.00 17.6
01/16/2019 04:00 3.43 200.3 410.99 0.00 18.1
01/16/2019 03:00 3.45 207.5 411.00 0.00 20.5
01/16/2019 02:00 3.44 203.9 411.00 0.00 22.6
01/16/2019 01:00 3.43 200.3 411.00 0.00 23.9
01/16/2019 00:00 3.44 203.9 411.00 0.00 23.7
01/15/2019 23:00 3.44 203.9 411.01 0.00 23.1
01/15/2019 22:00 3.44 203.9 411.02 0.00 21.5
01/15/2019 21:00 3.46 211.1 411.02 0.00 21.5
01/15/2019 20:00 3.46 211.1 411.02 0.00 22.9
01/15/2019 19:00 3.46 211.1 411.04 0.00 25.3
01/15/2019 18:00 3.46 211.1 411.04 0.00 26.2
01/15/2019 17:00 3.44 203.9 411.04 0.00 27.7
01/15/2019 16:00 3.45 207.5 411.05 0.00 30.7
01/15/2019 15:00 3.45 207.5 411.05 0.00 31.8
01/15/2019 14:00 3.46 211.1 411.05 0.00 31.5
01/15/2019 13:00 3.45 207.5 411.05 0.00 32.1
01/15/2019 12:00 3.46 211.1 411.06 0.00 31.3
01/15/2019 11:00 3.45 207.5 411.07 0.00 28.9
01/15/2019 10:00 3.45 207.5 411.07 0.00 22.2
01/15/2019 09:00 3.46 211.1 411.07 0.00 16.5
01/15/2019 08:00 3.46 211.1 411.09 0.00 9.7
01/15/2019 07:00 3.47 214.7 411.09 0.00 9.5
01/15/2019 06:00 3.46 211.1 411.09 0.00 9.6
01/15/2019 05:00 3.46 211.1 411.10 0.00 9.0
01/15/2019 04:00 3.46 211.1 411.10 0.00 9.6
01/15/2019 03:00 3.46 211.1 411.11 0.00 9.9
01/15/2019 02:00 3.46 211.1 411.11 0.00 10.4
01/15/2019 01:00 3.47 214.7 411.12 0.00 11.2
01/15/2019 00:00 3.46 211.1 411.12 0.00 12.0
01/14/2019 23:00 3.47 214.7 411.14 0.00 13.0
01/14/2019 22:00 3.47 214.7 411.14 0.00 14.3
01/14/2019 21:00 3.48 218.4 411.14 0.00 15.1
01/14/2019 20:00 3.48 218.4 411.15 0.00 16.9
01/14/2019 19:00 3.47 214.7 411.15 0.00 19.0
01/14/2019 18:00 3.48 218.4 411.16 0.00 21.1
01/14/2019 17:00 3.47 214.7 411.15 0.00 23.5
01/14/2019 16:00 3.48 218.4 411.16 0.00 27.1
01/14/2019 15:00 3.48 218.4 411.16 0.00 29.3
01/14/2019 14:00 3.49 222.2 411.17 0.00 29.4
01/14/2019 13:00 3.46 211.1 411.17 0.00 28.0
01/14/2019 12:00 3.47 214.7 411.18 0.00 22.6
01/14/2019 11:00 3.48 218.4 411.18 0.00 18.9
01/14/2019 10:00 3.48 218.4 411.19 0.00 14.3
01/14/2019 09:00 3.48 218.4 411.19 0.00 8.6
01/14/2019 08:00 3.50 226.0 411.21 0.00 5.1
01/14/2019 07:00 3.50 226.0 411.22 0.00 5.2
01/14/2019 06:00 3.49 222.2 411.23 0.00 5.8
01/14/2019 05:00 3.47 214.7 411.23 0.00 5.5
01/14/2019 04:00 3.48 218.4 411.24 0.00 6.8
01/14/2019 03:00 3.49 222.2 411.24 0.00 6.7
01/14/2019 02:00 3.50 226.0 411.24 0.00 7.6
01/14/2019 01:00 3.48 218.4 411.24 0.00 7.4
01/14/2019 00:00 3.48 218.4 411.25 0.00 7.7
01/13/2019 23:00 3.49 222.2 411.26 0.00 8.4
01/13/2019 22:00 3.50 226.0 411.26 0.00 10.3
01/13/2019 21:00 3.50 226.0 411.27 0.00 11.3
01/13/2019 20:00 3.50 226.0 411.27 0.00 13.5
01/13/2019 19:00 3.50 226.0 411.28 0.00 15.5
01/13/2019 18:00 3.50 226.0 411.29 0.00 18.0
01/13/2019 17:00 3.51 229.8 411.29 0.00 20.7
01/13/2019 16:00 3.49 222.2 411.29 0.00 24.0
01/13/2019 15:00 3.51 229.8 411.29 0.00 25.5
01/13/2019 14:00 3.50 226.0 411.29 0.00 25.0
01/13/2019 13:00 3.50 226.0 411.29 0.00 23.8
01/13/2019 12:00 3.51 229.8 411.30 0.00 23.2
01/13/2019 11:00 3.50 226.0 411.31 0.00 18.4
01/13/2019 10:00 3.51 229.8 411.31 0.00 12.5
01/13/2019 09:00 3.51 229.8 411.32 0.00 7.2
01/13/2019 08:00 3.51 229.8 411.33 0.00 4.0
01/13/2019 07:00 3.50 226.0 411.34 0.00 4.1
01/13/2019 06:00 3.51 229.8 411.33 0.00 4.6
01/13/2019 05:00 3.51 229.8 411.35 0.00 5.9
01/13/2019 04:00 3.51 229.8 411.35 0.00 6.6
01/13/2019 03:00 3.51 229.8 411.36 0.00 6.9
01/13/2019 02:00 3.52 233.6 411.38 0.00 8.1
01/13/2019 01:00 3.51 229.8 411.38 0.00 8.3
01/13/2019 00:00 3.50 226.0 411.37 0.00 9.6
01/12/2019 23:00 3.53 237.5 411.38 0.00 10.8
01/12/2019 22:00 3.51 229.8 411.38 0.00 12.0
01/12/2019 21:00 3.52 233.6 411.40 0.00 13.0
01/12/2019 20:00 3.51 229.8 411.40 0.00 14.1
01/12/2019 19:00 3.53 237.5 411.40 0.00 14.2
01/12/2019 18:00 3.52 233.6 411.41 0.00 14.9
01/12/2019 17:00 3.54 241.5 411.41 0.00 16.1
01/12/2019 16:00 3.53 237.5 411.41 0.00 17.5
01/12/2019 15:00 3.53 237.5 411.43 0.00 19.3
01/12/2019 14:00 3.52 233.6 411.40 0.00 19.2
01/12/2019 13:00 3.53 237.5 411.41 0.00 19.2
01/12/2019 12:00 3.52 233.6 411.42 0.00 17.8
01/12/2019 11:00 3.54 241.5 411.43 0.00 15.5
01/12/2019 10:00 3.52 233.6 411.41 0.00 12.0
01/12/2019 09:00 3.54 241.5 411.46 0.00 8.1
01/12/2019 08:00 3.54 241.5 411.45 0.00 6.1
01/12/2019 07:00 3.54 241.5 411.45 0.00 6.4
01/12/2019 06:00 3.52 233.6 411.45 0.00 5.7
01/12/2019 05:00 3.53 237.5 411.46 0.00 6.5
01/12/2019 04:00 3.53 237.5 411.48 0.00 6.3
01/12/2019 03:00 3.52 233.6 411.47 0.00 5.5
01/12/2019 02:00 3.53 237.5 411.49 0.00 5.8
01/12/2019 01:00 3.54 241.5 411.49 0.00 6.0
01/12/2019 00:00 3.55 245.4 411.50 0.00 6.1
01/11/2019 23:00 3.53 237.5 411.51 0.00 6.0
01/11/2019 22:00 3.54 241.5 411.53 0.00 6.0
01/11/2019 21:00 3.53 237.5 411.53 0.00 6.4
01/11/2019 20:00 3.55 245.4 411.53 0.00 6.3
01/11/2019 19:00 3.54 241.5 411.54 0.00 9.0
01/11/2019 18:00 3.55 245.4 411.55 0.00 11.7
01/11/2019 17:00 3.55 245.4 411.55 0.00 13.5
01/11/2019 16:00 3.54 241.5 411.56 0.00 15.8
01/11/2019 15:00 3.55 245.4 411.57 0.00 17.8
01/11/2019 14:00 3.53 237.5 411.56 0.00 18.7
01/11/2019 13:00 3.53 237.5 411.56 0.00 18.9
01/11/2019 12:00 3.52 233.6 411.58 0.00 19.3
01/11/2019 11:00 3.55 245.4 411.59 0.00 18.9
01/11/2019 10:00 3.56 249.5 411.56 0.00 18.0
01/11/2019 09:00 3.52 233.6 411.58 0.00 15.6
01/11/2019 08:00 3.54 241.5 411.58 0.00 13.8
01/11/2019 07:00 3.54 241.5 411.60 0.00 13.2
01/11/2019 06:00 3.56 249.5 411.61 0.00 13.1
01/11/2019 05:00 3.55 245.4 411.62 0.00 13.7
01/11/2019 04:00 3.56 249.5 411.62 0.00 14.1
01/11/2019 03:00 3.55 245.4 411.64 0.00 15.5
01/11/2019 02:00 3.56 249.5 411.63 0.00 16.0
01/11/2019 01:00 3.55 245.4 411.64 0.00 17.1
01/11/2019 00:00 3.55 245.4 411.65 0.00 17.8
01/10/2019 23:00 3.55 245.4 411.63 0.00 18.3
01/10/2019 22:00 3.56 249.5 411.65 0.00 18.8
01/10/2019 21:00 3.56 249.5 411.67 0.00 19.4
01/10/2019 20:00 3.56 249.5 411.66 0.00 20.3
01/10/2019 19:00 3.56 249.5 411.68 0.00 21.3
01/10/2019 18:00 3.56 249.5 411.68 0.00 22.3
01/10/2019 17:00 3.57 253.5 411.65 0.00 23.6
01/10/2019 16:00 3.57 253.5 411.67 0.00 25.0
01/10/2019 15:00 3.56 249.5 411.66 0.00 27.0
01/10/2019 14:00 3.56 249.5 411.67 0.00 28.0
01/10/2019 13:00 3.57 253.5 411.68 0.00 30.3
01/10/2019 12:00 3.56 249.5 411.67 0.00 30.8
01/10/2019 11:00 3.53 237.5 411.67 0.00 29.6
01/10/2019 10:00 3.55 245.4 411.64 0.00 30.1
01/10/2019 09:00 3.56 249.5 411.67 0.00 29.2
01/10/2019 08:00 3.57 253.5 411.67 0.00 27.5
01/10/2019 07:00 3.57 253.5 411.67 0.00 27.9
01/10/2019 06:00 3.58 257.6 411.67 0.00 28.6
01/10/2019 05:00 3.56 249.5 411.66 0.00 28.9
01/10/2019 04:00 -- -- -- -- --
01/10/2019 03:00 -- -- -- -- --
01/10/2019 02:00 -- -- -- -- --